sensor_id;sensor_type;location;lat;lon;timestamp;P1;durP1;ratioP1;P2;durP2;ratioP2
4810;SDS011;2419;51.276;6.472;2022-09-04T00:02:13;3.27;;;2.60;;
4810;SDS011;2419;51.276;6.472;2022-09-04T00:04:52;4.50;;;2.23;;
4810;SDS011;2419;51.276;6.472;2022-09-04T00:07:30;4.53;;;2.77;;
4810;SDS011;2419;51.276;6.472;2022-09-04T00:10:06;4.13;;;2.90;;
4810;SDS011;2419;51.276;6.472;2022-09-04T00:12:43;3.70;;;2.93;;
4810;SDS011;2419;51.276;6.472;2022-09-04T00:15:18;3.13;;;2.53;;
4810;SDS011;2419;51.276;6.472;2022-09-04T00:17:51;3.23;;;2.30;;
4810;SDS011;2419;51.276;6.472;2022-09-04T00:20:29;4.10;;;3.00;;
4810;SDS011;2419;51.276;6.472;2022-09-04T00:23:07;3.20;;;2.90;;
4810;SDS011;2419;51.276;6.472;2022-09-04T00:25:42;4.33;;;3.10;;
4810;SDS011;2419;51.276;6.472;2022-09-04T00:28:18;5.40;;;3.33;;
4810;SDS011;2419;51.276;6.472;2022-09-04T00:31:01;3.33;;;2.93;;
4810;SDS011;2419;51.276;6.472;2022-09-04T00:33:40;3.27;;;2.83;;
4810;SDS011;2419;51.276;6.472;2022-09-04T00:36:18;3.50;;;2.67;;
4810;SDS011;2419;51.276;6.472;2022-09-04T00:38:52;4.00;;;3.00;;
4810;SDS011;2419;51.276;6.472;2022-09-04T00:41:26;5.10;;;3.40;;
4810;SDS011;2419;51.276;6.472;2022-09-04T00:47:18;4.13;;;3.07;;
4810;SDS011;2419;51.276;6.472;2022-09-04T00:49:58;3.87;;;2.73;;
4810;SDS011;2419;51.276;6.472;2022-09-04T00:52:55;3.90;;;2.83;;
4810;SDS011;2419;51.276;6.472;2022-09-04T00:55:53;4.30;;;3.87;;
4810;SDS011;2419;51.276;6.472;2022-09-04T00:58:32;5.00;;;3.00;;
4810;SDS011;2419;51.276;6.472;2022-09-04T01:01:18;3.90;;;3.27;;
4810;SDS011;2419;51.276;6.472;2022-09-04T01:04:01;6.00;;;3.53;;
4810;SDS011;2419;51.276;6.472;2022-09-04T01:06:42;3.77;;;3.10;;
4810;SDS011;2419;51.276;6.472;2022-09-04T01:09:22;10.63;;;2.73;;
4810;SDS011;2419;51.276;6.472;2022-09-04T01:12:07;6.60;;;3.60;;
4810;SDS011;2419;51.276;6.472;2022-09-04T01:14:47;4.37;;;3.30;;
4810;SDS011;2419;51.276;6.472;2022-09-04T01:17:23;3.33;;;3.03;;
4810;SDS011;2419;51.276;6.472;2022-09-04T01:20:00;4.13;;;3.60;;
4810;SDS011;2419;51.276;6.472;2022-09-04T01:22:58;4.47;;;3.57;;
4810;SDS011;2419;51.276;6.472;2022-09-04T01:26:01;4.57;;;3.27;;
4810;SDS011;2419;51.276;6.472;2022-09-04T01:28:35;5.70;;;3.60;;
4810;SDS011;2419;51.276;6.472;2022-09-04T01:31:15;4.03;;;3.10;;
4810;SDS011;2419;51.276;6.472;2022-09-04T01:33:54;3.93;;;3.10;;
4810;SDS011;2419;51.276;6.472;2022-09-04T01:36:34;6.50;;;3.50;;
4810;SDS011;2419;51.276;6.472;2022-09-04T01:39:08;4.27;;;3.77;;
4810;SDS011;2419;51.276;6.472;2022-09-04T01:41:38;4.33;;;3.40;;
4810;SDS011;2419;51.276;6.472;2022-09-04T01:44:11;4.57;;;3.13;;
4810;SDS011;2419;51.276;6.472;2022-09-04T01:46:48;4.13;;;3.70;;
4810;SDS011;2419;51.276;6.472;2022-09-04T01:49:29;5.93;;;4.00;;
4810;SDS011;2419;51.276;6.472;2022-09-04T01:52:10;6.67;;;3.70;;
4810;SDS011;2419;51.276;6.472;2022-09-04T01:54:49;5.70;;;4.33;;
4810;SDS011;2419;51.276;6.472;2022-09-04T01:57:30;5.97;;;4.10;;
4810;SDS011;2419;51.276;6.472;2022-09-04T02:00:10;4.80;;;4.10;;
4810;SDS011;2419;51.276;6.472;2022-09-04T02:02:48;5.40;;;3.40;;
4810;SDS011;2419;51.276;6.472;2022-09-04T02:05:25;5.40;;;3.97;;
4810;SDS011;2419;51.276;6.472;2022-09-04T02:08:08;10.67;;;5.50;;
4810;SDS011;2419;51.276;6.472;2022-09-04T02:10:47;5.30;;;3.63;;
4810;SDS011;2419;51.276;6.472;2022-09-04T02:13:21;5.27;;;3.93;;
4810;SDS011;2419;51.276;6.472;2022-09-04T02:15:58;4.20;;;3.67;;
4810;SDS011;2419;51.276;6.472;2022-09-04T02:18:36;8.73;;;4.57;;
4810;SDS011;2419;51.276;6.472;2022-09-04T02:21:13;4.90;;;3.87;;
4810;SDS011;2419;51.276;6.472;2022-09-04T02:23:55;8.47;;;4.80;;
4810;SDS011;2419;51.276;6.472;2022-09-04T02:26:33;5.30;;;3.60;;
4810;SDS011;2419;51.276;6.472;2022-09-04T02:29:10;6.17;;;4.60;;
4810;SDS011;2419;51.276;6.472;2022-09-04T02:31:47;5.33;;;4.17;;
4810;SDS011;2419;51.276;6.472;2022-09-04T02:34:24;5.60;;;4.03;;
4810;SDS011;2419;51.276;6.472;2022-09-04T02:37:00;6.97;;;4.33;;
4810;SDS011;2419;51.276;6.472;2022-09-04T02:39:40;7.17;;;4.87;;
4810;SDS011;2419;51.276;6.472;2022-09-04T02:42:22;6.37;;;4.57;;
4810;SDS011;2419;51.276;6.472;2022-09-04T02:45:02;6.90;;;4.87;;
4810;SDS011;2419;51.276;6.472;2022-09-04T02:47:41;5.77;;;4.20;;
4810;SDS011;2419;51.276;6.472;2022-09-04T02:50:18;7.53;;;4.90;;
4810;SDS011;2419;51.276;6.472;2022-09-04T02:52:58;8.93;;;5.80;;
4810;SDS011;2419;51.276;6.472;2022-09-04T02:55:48;7.90;;;4.97;;
4810;SDS011;2419;51.276;6.472;2022-09-04T02:58:27;6.97;;;4.10;;
4810;SDS011;2419;51.276;6.472;2022-09-04T03:01:08;8.40;;;4.63;;
4810;SDS011;2419;51.276;6.472;2022-09-04T03:03:41;7.13;;;5.00;;
4810;SDS011;2419;51.276;6.472;2022-09-04T03:06:14;7.10;;;4.60;;
4810;SDS011;2419;51.276;6.472;2022-09-04T03:08:49;9.57;;;5.23;;
4810;SDS011;2419;51.276;6.472;2022-09-04T03:11:25;6.60;;;4.20;;
4810;SDS011;2419;51.276;6.472;2022-09-04T03:14:00;9.43;;;4.57;;
4810;SDS011;2419;51.276;6.472;2022-09-04T03:16:38;6.10;;;4.57;;
4810;SDS011;2419;51.276;6.472;2022-09-04T03:19:12;6.17;;;4.43;;
4810;SDS011;2419;51.276;6.472;2022-09-04T03:21:47;7.77;;;5.33;;
4810;SDS011;2419;51.276;6.472;2022-09-04T03:24:20;7.70;;;6.00;;
4810;SDS011;2419;51.276;6.472;2022-09-04T03:26:52;6.33;;;4.67;;
4810;SDS011;2419;51.276;6.472;2022-09-04T03:29:25;5.70;;;4.70;;
4810;SDS011;2419;51.276;6.472;2022-09-04T03:32:05;6.23;;;4.87;;
4810;SDS011;2419;51.276;6.472;2022-09-04T03:34:45;6.80;;;4.50;;
4810;SDS011;2419;51.276;6.472;2022-09-04T03:37:21;8.07;;;4.63;;
4810;SDS011;2419;51.276;6.472;2022-09-04T03:40:08;7.33;;;5.03;;
4810;SDS011;2419;51.276;6.472;2022-09-04T03:43:00;5.60;;;4.17;;
4810;SDS011;2419;51.276;6.472;2022-09-04T03:45:38;5.00;;;3.40;;
4810;SDS011;2419;51.276;6.472;2022-09-04T03:48:18;9.20;;;4.87;;
4810;SDS011;2419;51.276;6.472;2022-09-04T03:51:02;5.87;;;4.60;;
4810;SDS011;2419;51.276;6.472;2022-09-04T03:53:41;5.67;;;4.10;;
4810;SDS011;2419;51.276;6.472;2022-09-04T03:56:25;6.50;;;4.53;;
4810;SDS011;2419;51.276;6.472;2022-09-04T03:59:06;13.50;;;4.97;;
4810;SDS011;2419;51.276;6.472;2022-09-04T04:01:42;6.37;;;4.13;;
4810;SDS011;2419;51.276;6.472;2022-09-04T04:07:22;8.97;;;5.20;;
4810;SDS011;2419;51.276;6.472;2022-09-04T04:10:07;6.47;;;4.83;;
4810;SDS011;2419;51.276;6.472;2022-09-04T04:15:48;5.90;;;3.97;;
4810;SDS011;2419;51.276;6.472;2022-09-04T04:18:30;7.90;;;5.83;;
4810;SDS011;2419;51.276;6.472;2022-09-04T04:21:15;7.63;;;4.80;;
4810;SDS011;2419;51.276;6.472;2022-09-04T04:24:02;22.03;;;5.67;;
4810;SDS011;2419;51.276;6.472;2022-09-04T04:26:50;5.67;;;4.70;;
4810;SDS011;2419;51.276;6.472;2022-09-04T04:29:32;8.93;;;5.90;;
4810;SDS011;2419;51.276;6.472;2022-09-04T04:32:22;6.53;;;4.70;;
4810;SDS011;2419;51.276;6.472;2022-09-04T04:35:10;7.20;;;5.30;;
4810;SDS011;2419;51.276;6.472;2022-09-04T04:38:01;6.93;;;4.87;;
4810;SDS011;2419;51.276;6.472;2022-09-04T04:40:50;7.20;;;4.73;;
4810;SDS011;2419;51.276;6.472;2022-09-04T04:43:40;7.93;;;5.20;;
4810;SDS011;2419;51.276;6.472;2022-09-04T04:46:17;8.47;;;5.00;;
4810;SDS011;2419;51.276;6.472;2022-09-04T04:49:03;8.10;;;5.33;;
4810;SDS011;2419;51.276;6.472;2022-09-04T04:52:00;7.50;;;4.93;;
4810;SDS011;2419;51.276;6.472;2022-09-04T04:54:51;10.93;;;5.77;;
4810;SDS011;2419;51.276;6.472;2022-09-04T04:57:33;8.90;;;4.90;;
4810;SDS011;2419;51.276;6.472;2022-09-04T05:00:12;7.67;;;5.53;;
4810;SDS011;2419;51.276;6.472;2022-09-04T05:02:54;9.07;;;6.37;;
4810;SDS011;2419;51.276;6.472;2022-09-04T05:05:42;7.87;;;5.60;;
4810;SDS011;2419;51.276;6.472;2022-09-04T05:08:21;7.90;;;5.07;;
4810;SDS011;2419;51.276;6.472;2022-09-04T05:10:58;9.73;;;5.60;;
4810;SDS011;2419;51.276;6.472;2022-09-04T05:13:34;11.40;;;6.47;;
4810;SDS011;2419;51.276;6.472;2022-09-04T05:16:16;8.60;;;5.13;;
4810;SDS011;2419;51.276;6.472;2022-09-04T05:18:51;9.03;;;5.70;;
4810;SDS011;2419;51.276;6.472;2022-09-04T05:21:27;8.50;;;5.13;;
4810;SDS011;2419;51.276;6.472;2022-09-04T05:24:03;8.53;;;5.40;;
4810;SDS011;2419;51.276;6.472;2022-09-04T05:26:40;9.00;;;6.73;;
4810;SDS011;2419;51.276;6.472;2022-09-04T05:29:15;11.70;;;6.10;;
4810;SDS011;2419;51.276;6.472;2022-09-04T05:31:55;10.80;;;6.10;;
4810;SDS011;2419;51.276;6.472;2022-09-04T05:34:28;8.50;;;5.40;;
4810;SDS011;2419;51.276;6.472;2022-09-04T05:37:06;9.90;;;6.10;;
4810;SDS011;2419;51.276;6.472;2022-09-04T05:39:43;8.90;;;6.23;;
4810;SDS011;2419;51.276;6.472;2022-09-04T05:42:37;9.07;;;6.03;;
4810;SDS011;2419;51.276;6.472;2022-09-04T05:45:13;10.07;;;6.27;;
4810;SDS011;2419;51.276;6.472;2022-09-04T05:47:53;6.83;;;4.77;;
4810;SDS011;2419;51.276;6.472;2022-09-04T05:50:33;8.53;;;5.37;;
4810;SDS011;2419;51.276;6.472;2022-09-04T05:53:23;10.70;;;6.77;;
4810;SDS011;2419;51.276;6.472;2022-09-04T05:59:11;6.73;;;4.70;;
4810;SDS011;2419;51.276;6.472;2022-09-04T06:02:11;11.00;;;6.27;;
4810;SDS011;2419;51.276;6.472;2022-09-04T06:07:47;7.20;;;5.97;;
4810;SDS011;2419;51.276;6.472;2022-09-04T06:10:22;8.13;;;4.97;;
4810;SDS011;2419;51.276;6.472;2022-09-04T06:13:09;7.53;;;5.43;;
4810;SDS011;2419;51.276;6.472;2022-09-04T06:16:06;7.70;;;5.40;;
4810;SDS011;2419;51.276;6.472;2022-09-04T06:18:50;7.10;;;5.03;;
4810;SDS011;2419;51.276;6.472;2022-09-04T06:21:48;7.33;;;4.77;;
4810;SDS011;2419;51.276;6.472;2022-09-04T06:25:11;8.80;;;5.10;;
4810;SDS011;2419;51.276;6.472;2022-09-04T06:28:02;8.27;;;5.13;;
4810;SDS011;2419;51.276;6.472;2022-09-04T06:30:52;6.00;;;4.00;;
4810;SDS011;2419;51.276;6.472;2022-09-04T06:33:33;6.37;;;4.80;;
4810;SDS011;2419;51.276;6.472;2022-09-04T06:36:15;7.53;;;4.50;;
4810;SDS011;2419;51.276;6.472;2022-09-04T06:38:58;4.70;;;4.30;;
4810;SDS011;2419;51.276;6.472;2022-09-04T06:41:41;6.60;;;4.40;;
4810;SDS011;2419;51.276;6.472;2022-09-04T06:44:24;5.50;;;4.03;;
4810;SDS011;2419;51.276;6.472;2022-09-04T06:47:05;7.27;;;4.73;;
4810;SDS011;2419;51.276;6.472;2022-09-04T06:49:51;7.30;;;3.93;;
4810;SDS011;2419;51.276;6.472;2022-09-04T06:52:37;7.80;;;5.00;;
4810;SDS011;2419;51.276;6.472;2022-09-04T06:55:15;6.63;;;4.37;;
4810;SDS011;2419;51.276;6.472;2022-09-04T06:58:00;5.30;;;4.73;;
4810;SDS011;2419;51.276;6.472;2022-09-04T07:00:42;9.00;;;5.10;;
4810;SDS011;2419;51.276;6.472;2022-09-04T07:03:22;5.40;;;4.60;;
4810;SDS011;2419;51.276;6.472;2022-09-04T07:06:04;3.73;;;3.23;;
4810;SDS011;2419;51.276;6.472;2022-09-04T07:08:42;3.57;;;3.17;;
4810;SDS011;2419;51.276;6.472;2022-09-04T07:11:23;5.10;;;3.80;;
4810;SDS011;2419;51.276;6.472;2022-09-04T07:14:11;4.20;;;3.07;;
4810;SDS011;2419;51.276;6.472;2022-09-04T07:17:02;3.23;;;2.90;;
4810;SDS011;2419;51.276;6.472;2022-09-04T07:22:52;4.23;;;3.30;;
4810;SDS011;2419;51.276;6.472;2022-09-04T07:25:32;6.03;;;3.90;;
4810;SDS011;2419;51.276;6.472;2022-09-04T07:28:10;4.30;;;2.73;;
4810;SDS011;2419;51.276;6.472;2022-09-04T07:30:50;4.17;;;2.83;;
4810;SDS011;2419;51.276;6.472;2022-09-04T07:33:25;3.50;;;2.87;;
4810;SDS011;2419;51.276;6.472;2022-09-04T07:36:03;3.80;;;2.60;;
4810;SDS011;2419;51.276;6.472;2022-09-04T07:38:42;2.33;;;2.10;;
4810;SDS011;2419;51.276;6.472;2022-09-04T07:41:20;4.63;;;3.40;;
4810;SDS011;2419;51.276;6.472;2022-09-04T07:43:58;3.23;;;2.93;;
4810;SDS011;2419;51.276;6.472;2022-09-04T07:46:34;3.73;;;2.70;;
4810;SDS011;2419;51.276;6.472;2022-09-04T07:49:10;3.70;;;2.40;;
4810;SDS011;2419;51.276;6.472;2022-09-04T07:51:47;2.90;;;2.57;;
4810;SDS011;2419;51.276;6.472;2022-09-04T07:54:31;3.50;;;2.80;;
4810;SDS011;2419;51.276;6.472;2022-09-04T07:57:16;3.03;;;2.73;;
4810;SDS011;2419;51.276;6.472;2022-09-04T08:00:11;2.70;;;2.07;;
4810;SDS011;2419;51.276;6.472;2022-09-04T08:05:48;4.93;;;2.70;;
4810;SDS011;2419;51.276;6.472;2022-09-04T08:08:31;2.40;;;2.20;;
4810;SDS011;2419;51.276;6.472;2022-09-04T08:11:32;3.17;;;2.50;;
4810;SDS011;2419;51.276;6.472;2022-09-04T08:14:18;2.63;;;2.40;;
4810;SDS011;2419;51.276;6.472;2022-09-04T08:16:55;2.30;;;2.07;;
4810;SDS011;2419;51.276;6.472;2022-09-04T08:19:43;2.10;;;1.90;;
4810;SDS011;2419;51.276;6.472;2022-09-04T08:22:19;3.37;;;2.10;;
4810;SDS011;2419;51.276;6.472;2022-09-04T08:28:03;2.00;;;1.90;;
4810;SDS011;2419;51.276;6.472;2022-09-04T08:30:46;2.70;;;2.03;;
4810;SDS011;2419;51.276;6.472;2022-09-04T08:33:36;2.73;;;2.53;;
4810;SDS011;2419;51.276;6.472;2022-09-04T08:36:20;1.97;;;1.77;;
4810;SDS011;2419;51.276;6.472;2022-09-04T08:39:01;3.13;;;1.97;;
4810;SDS011;2419;51.276;6.472;2022-09-04T08:41:42;2.17;;;1.97;;
4810;SDS011;2419;51.276;6.472;2022-09-04T08:48:19;3.07;;;1.80;;
4810;SDS011;2419;51.276;6.472;2022-09-04T08:54:10;1.83;;;1.73;;
4810;SDS011;2419;51.276;6.472;2022-09-04T08:57:03;3.23;;;1.67;;
4810;SDS011;2419;51.276;6.472;2022-09-04T09:00:01;3.00;;;2.00;;
4810;SDS011;2419;51.276;6.472;2022-09-04T09:05:49;1.83;;;1.67;;
4810;SDS011;2419;51.276;6.472;2022-09-04T09:15:24;1.93;;;1.53;;
4810;SDS011;2419;51.276;6.472;2022-09-04T09:18:21;3.77;;;2.00;;
4810;SDS011;2419;51.276;6.472;2022-09-04T09:21:06;2.03;;;1.87;;
4810;SDS011;2419;51.276;6.472;2022-09-04T09:23:37;1.83;;;1.53;;
4810;SDS011;2419;51.276;6.472;2022-09-04T09:26:16;2.53;;;1.47;;
4810;SDS011;2419;51.276;6.472;2022-09-04T09:35:07;1.60;;;1.43;;
4810;SDS011;2419;51.276;6.472;2022-09-04T09:47:36;1.40;;;1.30;;
4810;SDS011;2419;51.276;6.472;2022-09-04T09:50:29;1.67;;;1.10;;
4810;SDS011;2419;51.276;6.472;2022-09-04T09:59:43;1.40;;;1.30;;
4810;SDS011;2419;51.276;6.472;2022-09-04T10:08:49;1.40;;;1.30;;
4810;SDS011;2419;51.276;6.472;2022-09-04T10:24:18;1.33;;;1.23;;
4810;SDS011;2419;51.276;6.472;2022-09-04T10:32:52;1.83;;;1.40;;
4810;SDS011;2419;51.276;6.472;2022-09-04T10:35:40;1.37;;;1.27;;
4810;SDS011;2419;51.276;6.472;2022-09-04T10:38:30;1.17;;;1.07;;
4810;SDS011;2419;51.276;6.472;2022-09-04T10:41:22;1.33;;;1.07;;
4810;SDS011;2419;51.276;6.472;2022-09-04T10:44:03;1.07;;;1.07;;
4810;SDS011;2419;51.276;6.472;2022-09-04T10:46:55;1.60;;;1.27;;
4810;SDS011;2419;51.276;6.472;2022-09-04T10:49:38;1.60;;;1.27;;
4810;SDS011;2419;51.276;6.472;2022-09-04T10:52:26;1.30;;;1.20;;
4810;SDS011;2419;51.276;6.472;2022-09-04T10:55:09;1.20;;;1.10;;
4810;SDS011;2419;51.276;6.472;2022-09-04T10:57:51;1.40;;;1.30;;
4810;SDS011;2419;51.276;6.472;2022-09-04T11:00:41;1.13;;;1.00;;
4810;SDS011;2419;51.276;6.472;2022-09-04T11:09:21;1.30;;;1.20;;
4810;SDS011;2419;51.276;6.472;2022-09-04T11:12:03;1.33;;;1.23;;
4810;SDS011;2419;51.276;6.472;2022-09-04T11:14:53;1.43;;;1.27;;
4810;SDS011;2419;51.276;6.472;2022-09-04T11:20:56;1.40;;;1.27;;
4810;SDS011;2419;51.276;6.472;2022-09-04T11:29:54;0.80;;;0.80;;
4810;SDS011;2419;51.276;6.472;2022-09-04T11:32:40;1.10;;;1.00;;
4810;SDS011;2419;51.276;6.472;2022-09-04T11:35:40;1.17;;;1.00;;
4810;SDS011;2419;51.276;6.472;2022-09-04T11:38:32;1.03;;;0.93;;
4810;SDS011;2419;51.276;6.472;2022-09-04T11:47:57;1.30;;;1.20;;
4810;SDS011;2419;51.276;6.472;2022-09-04T11:51:10;1.07;;;0.97;;
4810;SDS011;2419;51.276;6.472;2022-09-04T11:54:11;1.20;;;1.10;;
4810;SDS011;2419;51.276;6.472;2022-09-04T11:57:02;1.33;;;1.23;;
4810;SDS011;2419;51.276;6.472;2022-09-04T11:59:42;1.53;;;1.20;;
4810;SDS011;2419;51.276;6.472;2022-09-04T12:02:42;0.90;;;0.90;;
4810;SDS011;2419;51.276;6.472;2022-09-04T12:05:27;1.27;;;1.17;;
4810;SDS011;2419;51.276;6.472;2022-09-04T12:08:18;1.10;;;1.00;;
4810;SDS011;2419;51.276;6.472;2022-09-04T12:11:29;1.00;;;0.90;;
4810;SDS011;2419;51.276;6.472;2022-09-04T12:14:25;1.10;;;1.00;;
4810;SDS011;2419;51.276;6.472;2022-09-04T12:17:11;0.97;;;0.90;;
4810;SDS011;2419;51.276;6.472;2022-09-04T12:20:06;1.20;;;1.10;;
4810;SDS011;2419;51.276;6.472;2022-09-04T12:22:55;1.37;;;1.20;;
4810;SDS011;2419;51.276;6.472;2022-09-04T12:25:49;1.07;;;0.97;;
4810;SDS011;2419;51.276;6.472;2022-09-04T12:29:06;1.37;;;1.23;;
4810;SDS011;2419;51.276;6.472;2022-09-04T12:32:15;1.93;;;1.10;;
4810;SDS011;2419;51.276;6.472;2022-09-04T12:35:06;1.20;;;1.10;;
4810;SDS011;2419;51.276;6.472;2022-09-04T12:38:11;1.20;;;1.10;;
4810;SDS011;2419;51.276;6.472;2022-09-04T12:41:12;2.97;;;1.40;;
4810;SDS011;2419;51.276;6.472;2022-09-04T12:43:56;1.10;;;1.00;;
4810;SDS011;2419;51.276;6.472;2022-09-04T12:46:34;1.00;;;1.00;;
4810;SDS011;2419;51.276;6.472;2022-09-04T12:49:26;0.97;;;0.90;;
4810;SDS011;2419;51.276;6.472;2022-09-04T12:52:07;1.43;;;1.17;;
4810;SDS011;2419;51.276;6.472;2022-09-04T12:54:48;1.40;;;1.13;;
4810;SDS011;2419;51.276;6.472;2022-09-04T12:57:31;1.50;;;1.20;;
4810;SDS011;2419;51.276;6.472;2022-09-04T13:00:06;1.20;;;1.10;;
4810;SDS011;2419;51.276;6.472;2022-09-04T13:02:42;1.20;;;1.10;;
4810;SDS011;2419;51.276;6.472;2022-09-04T13:05:28;1.57;;;1.30;;
4810;SDS011;2419;51.276;6.472;2022-09-04T13:08:09;1.77;;;1.20;;
4810;SDS011;2419;51.276;6.472;2022-09-04T13:10:54;1.37;;;1.27;;
4810;SDS011;2419;51.276;6.472;2022-09-04T13:13:34;1.20;;;1.10;;
4810;SDS011;2419;51.276;6.472;2022-09-04T13:16:08;1.33;;;1.10;;
4810;SDS011;2419;51.276;6.472;2022-09-04T13:18:47;1.10;;;1.00;;
4810;SDS011;2419;51.276;6.472;2022-09-04T13:21:30;1.00;;;1.00;;
4810;SDS011;2419;51.276;6.472;2022-09-04T13:24:15;1.30;;;1.20;;
4810;SDS011;2419;51.276;6.472;2022-09-04T13:26:57;1.20;;;1.10;;
4810;SDS011;2419;51.276;6.472;2022-09-04T13:29:37;1.20;;;1.10;;
4810;SDS011;2419;51.276;6.472;2022-09-04T13:32:25;1.63;;;1.53;;
4810;SDS011;2419;51.276;6.472;2022-09-04T13:35:06;1.33;;;1.20;;
4810;SDS011;2419;51.276;6.472;2022-09-04T13:37:48;1.47;;;1.37;;
4810;SDS011;2419;51.276;6.472;2022-09-04T13:40:31;2.20;;;1.27;;
4810;SDS011;2419;51.276;6.472;2022-09-04T13:43:18;1.40;;;1.30;;
4810;SDS011;2419;51.276;6.472;2022-09-04T13:46:08;1.30;;;1.20;;
4810;SDS011;2419;51.276;6.472;2022-09-04T13:48:41;1.33;;;1.23;;
4810;SDS011;2419;51.276;6.472;2022-09-04T13:51:12;2.03;;;1.30;;
4810;SDS011;2419;51.276;6.472;2022-09-04T13:53:51;1.40;;;1.30;;
4810;SDS011;2419;51.276;6.472;2022-09-04T13:56:27;1.20;;;1.10;;
4810;SDS011;2419;51.276;6.472;2022-09-04T13:59:03;5.70;;;1.33;;
4810;SDS011;2419;51.276;6.472;2022-09-04T14:01:35;1.20;;;1.10;;
4810;SDS011;2419;51.276;6.472;2022-09-04T14:04:12;2.00;;;1.27;;
4810;SDS011;2419;51.276;6.472;2022-09-04T14:06:44;1.20;;;1.10;;
4810;SDS011;2419;51.276;6.472;2022-09-04T14:09:14;1.20;;;1.10;;
4810;SDS011;2419;51.276;6.472;2022-09-04T14:11:50;1.23;;;1.13;;
4810;SDS011;2419;51.276;6.472;2022-09-04T14:14:54;1.33;;;1.23;;
4810;SDS011;2419;51.276;6.472;2022-09-04T14:17:45;1.30;;;1.20;;
4810;SDS011;2419;51.276;6.472;2022-09-04T14:20:22;2.50;;;1.40;;
4810;SDS011;2419;51.276;6.472;2022-09-04T14:22:57;1.27;;;1.17;;
4810;SDS011;2419;51.276;6.472;2022-09-04T14:25:36;1.30;;;1.20;;
4810;SDS011;2419;51.276;6.472;2022-09-04T14:28:11;1.07;;;0.97;;
4810;SDS011;2419;51.276;6.472;2022-09-04T14:30:53;2.17;;;1.50;;
4810;SDS011;2419;51.276;6.472;2022-09-04T14:33:39;1.23;;;1.13;;
4810;SDS011;2419;51.276;6.472;2022-09-04T14:36:18;1.33;;;1.20;;
4810;SDS011;2419;51.276;6.472;2022-09-04T14:38:58;1.30;;;1.20;;
4810;SDS011;2419;51.276;6.472;2022-09-04T14:41:47;2.60;;;1.27;;
4810;SDS011;2419;51.276;6.472;2022-09-04T14:44:38;1.30;;;1.20;;
4810;SDS011;2419;51.276;6.472;2022-09-04T14:47:20;2.00;;;1.33;;
4810;SDS011;2419;51.276;6.472;2022-09-04T14:50:02;1.30;;;1.20;;
4810;SDS011;2419;51.276;6.472;2022-09-04T14:52:37;1.50;;;1.40;;
4810;SDS011;2419;51.276;6.472;2022-09-04T14:55:08;1.10;;;1.00;;
4810;SDS011;2419;51.276;6.472;2022-09-04T14:57:43;1.37;;;1.20;;
4810;SDS011;2419;51.276;6.472;2022-09-04T15:00:17;1.30;;;1.20;;
4810;SDS011;2419;51.276;6.472;2022-09-04T15:02:50;1.30;;;1.20;;
4810;SDS011;2419;51.276;6.472;2022-09-04T15:05:28;1.37;;;1.13;;
4810;SDS011;2419;51.276;6.472;2022-09-04T15:08:01;1.27;;;1.17;;
4810;SDS011;2419;51.276;6.472;2022-09-04T15:10:33;1.37;;;1.10;;
4810;SDS011;2419;51.276;6.472;2022-09-04T15:16:22;1.20;;;1.10;;
4810;SDS011;2419;51.276;6.472;2022-09-04T15:18:59;1.20;;;1.10;;
4810;SDS011;2419;51.276;6.472;2022-09-04T15:21:34;1.00;;;1.00;;
4810;SDS011;2419;51.276;6.472;2022-09-04T15:24:11;1.47;;;1.20;;
4810;SDS011;2419;51.276;6.472;2022-09-04T15:26:44;1.10;;;1.00;;
4810;SDS011;2419;51.276;6.472;2022-09-04T15:29:22;1.20;;;1.10;;
4810;SDS011;2419;51.276;6.472;2022-09-04T15:31:57;1.40;;;1.13;;
4810;SDS011;2419;51.276;6.472;2022-09-04T15:34:28;1.40;;;1.30;;
4810;SDS011;2419;51.276;6.472;2022-09-04T15:37:10;1.13;;;1.00;;
4810;SDS011;2419;51.276;6.472;2022-09-04T15:39:47;1.53;;;1.43;;
4810;SDS011;2419;51.276;6.472;2022-09-04T15:42:31;1.10;;;1.00;;
4810;SDS011;2419;51.276;6.472;2022-09-04T15:45:04;1.60;;;1.40;;
4810;SDS011;2419;51.276;6.472;2022-09-04T15:47:43;1.77;;;1.40;;
4810;SDS011;2419;51.276;6.472;2022-09-04T15:50:25;1.67;;;1.30;;
4810;SDS011;2419;51.276;6.472;2022-09-04T15:52:58;1.40;;;1.30;;
4810;SDS011;2419;51.276;6.472;2022-09-04T15:55:40;2.20;;;1.60;;
4810;SDS011;2419;51.276;6.472;2022-09-04T15:58:14;1.13;;;1.00;;
4810;SDS011;2419;51.276;6.472;2022-09-04T16:03:39;1.40;;;1.20;;
4810;SDS011;2419;51.276;6.472;2022-09-04T16:06:21;1.10;;;1.00;;
4810;SDS011;2419;51.276;6.472;2022-09-04T16:08:55;1.40;;;1.10;;
4810;SDS011;2419;51.276;6.472;2022-09-04T16:11:30;1.47;;;1.37;;
4810;SDS011;2419;51.276;6.472;2022-09-04T16:14:03;1.83;;;1.40;;
4810;SDS011;2419;51.276;6.472;2022-09-04T16:16:37;1.30;;;1.20;;
4810;SDS011;2419;51.276;6.472;2022-09-04T16:19:20;1.43;;;1.20;;
4810;SDS011;2419;51.276;6.472;2022-09-04T16:21:57;1.10;;;1.00;;
4810;SDS011;2419;51.276;6.472;2022-09-04T16:24:33;1.30;;;1.20;;
4810;SDS011;2419;51.276;6.472;2022-09-04T16:27:07;1.00;;;0.90;;
4810;SDS011;2419;51.276;6.472;2022-09-04T16:29:39;1.13;;;1.03;;
4810;SDS011;2419;51.276;6.472;2022-09-04T16:32:17;1.37;;;1.27;;
4810;SDS011;2419;51.276;6.472;2022-09-04T16:34:48;1.50;;;1.40;;
4810;SDS011;2419;51.276;6.472;2022-09-04T16:37:21;1.13;;;1.03;;
4810;SDS011;2419;51.276;6.472;2022-09-04T16:40:02;1.20;;;1.10;;
4810;SDS011;2419;51.276;6.472;2022-09-04T16:42:40;1.90;;;1.37;;
4810;SDS011;2419;51.276;6.472;2022-09-04T16:45:15;1.40;;;1.20;;
4810;SDS011;2419;51.276;6.472;2022-09-04T16:47:48;1.30;;;1.17;;
4810;SDS011;2419;51.276;6.472;2022-09-04T16:50:36;1.33;;;1.17;;
4810;SDS011;2419;51.276;6.472;2022-09-04T16:53:12;1.17;;;1.07;;
4810;SDS011;2419;51.276;6.472;2022-09-04T16:55:47;1.40;;;1.30;;
4810;SDS011;2419;51.276;6.472;2022-09-04T16:58:30;1.70;;;1.30;;
4810;SDS011;2419;51.276;6.472;2022-09-04T17:01:10;1.17;;;1.07;;
4810;SDS011;2419;51.276;6.472;2022-09-04T17:03:46;1.20;;;1.10;;
4810;SDS011;2419;51.276;6.472;2022-09-04T17:06:41;1.50;;;1.40;;
4810;SDS011;2419;51.276;6.472;2022-09-04T17:09:21;1.33;;;1.23;;
4810;SDS011;2419;51.276;6.472;2022-09-04T17:11:56;1.47;;;1.37;;
4810;SDS011;2419;51.276;6.472;2022-09-04T17:14:29;1.20;;;1.10;;
4810;SDS011;2419;51.276;6.472;2022-09-04T17:17:03;1.27;;;1.17;;
4810;SDS011;2419;51.276;6.472;2022-09-04T17:19:58;0.90;;;0.90;;
4810;SDS011;2419;51.276;6.472;2022-09-04T17:22:34;1.40;;;1.30;;
4810;SDS011;2419;51.276;6.472;2022-09-04T17:25:31;1.10;;;1.00;;
4810;SDS011;2419;51.276;6.472;2022-09-04T17:28:25;1.13;;;1.03;;
4810;SDS011;2419;51.276;6.472;2022-09-04T17:31:32;1.13;;;1.00;;
4810;SDS011;2419;51.276;6.472;2022-09-04T17:34:13;1.17;;;1.07;;
4810;SDS011;2419;51.276;6.472;2022-09-04T17:37:07;1.17;;;1.00;;
4810;SDS011;2419;51.276;6.472;2022-09-04T17:40:04;1.17;;;1.07;;
4810;SDS011;2419;51.276;6.472;2022-09-04T17:43:05;1.50;;;1.40;;
4810;SDS011;2419;51.276;6.472;2022-09-04T17:45:54;1.77;;;1.30;;
4810;SDS011;2419;51.276;6.472;2022-09-04T17:48:36;1.23;;;1.13;;
4810;SDS011;2419;51.276;6.472;2022-09-04T17:51:06;1.40;;;1.30;;
4810;SDS011;2419;51.276;6.472;2022-09-04T17:53:45;1.57;;;1.00;;
4810;SDS011;2419;51.276;6.472;2022-09-04T17:56:19;1.30;;;1.20;;
4810;SDS011;2419;51.276;6.472;2022-09-04T17:58:55;1.40;;;1.30;;
4810;SDS011;2419;51.276;6.472;2022-09-04T18:01:27;1.20;;;1.10;;
4810;SDS011;2419;51.276;6.472;2022-09-04T18:04:14;1.50;;;1.20;;
4810;SDS011;2419;51.276;6.472;2022-09-04T18:06:53;1.63;;;1.30;;
4810;SDS011;2419;51.276;6.472;2022-09-04T18:09:56;1.30;;;1.20;;
4810;SDS011;2419;51.276;6.472;2022-09-04T18:12:30;1.50;;;1.30;;
4810;SDS011;2419;51.276;6.472;2022-09-04T18:15:06;1.70;;;1.37;;
4810;SDS011;2419;51.276;6.472;2022-09-04T18:18:04;1.40;;;1.30;;
4810;SDS011;2419;51.276;6.472;2022-09-04T18:20:38;1.37;;;1.27;;
4810;SDS011;2419;51.276;6.472;2022-09-04T18:23:21;1.60;;;1.47;;
4810;SDS011;2419;51.276;6.472;2022-09-04T18:26:17;2.50;;;1.50;;
4810;SDS011;2419;51.276;6.472;2022-09-04T18:29:12;1.37;;;1.23;;
4810;SDS011;2419;51.276;6.472;2022-09-04T18:32:23;1.10;;;1.00;;
4810;SDS011;2419;51.276;6.472;2022-09-04T18:35:19;1.57;;;1.47;;
4810;SDS011;2419;51.276;6.472;2022-09-04T18:38:15;1.53;;;1.30;;
4810;SDS011;2419;51.276;6.472;2022-09-04T18:40:46;1.30;;;1.20;;
4810;SDS011;2419;51.276;6.472;2022-09-04T18:43:40;1.60;;;1.50;;
4810;SDS011;2419;51.276;6.472;2022-09-04T18:46:32;1.33;;;1.23;;